Time;durP1;ratioP1;P1;durP2;ratioP2;P2;SDS_P1;SDS_P2;PMS_P1;PMS_P2;Temp;Humidity;BMP_temperature;BMP_pressure;BME280_temperature;BME280_humidity;BME280_pressure;Samples;Min_cycle;Max_cycle;Signal;HPM_P1;HPM_P2
2022/12/04 00:02:26;;;;;;;;;7.20;3.40;;;;;7.54;58.00;99929.63;5089567;28;8836;-79
2022/12/04 00:04:56;;;;;;;;;11.40;10.80;;;;;7.40;57.78;99939.72;5071395;28;9604;-76
2022/12/04 00:07:24;;;;;;;;;6.80;6.80;;;;;7.59;57.37;99930.56;5071389;28;8947;-77
2022/12/04 00:09:53;;;;;;;;;9.00;9.00;;;;;7.40;57.73;99937.13;5045208;28;8838;-77
2022/12/04 00:12:22;;;;;;;;;7.80;5.20;;;;;7.41;57.47;99927.66;5070719;28;8885;-78
2022/12/04 00:14:51;;;;;;;;;8.40;6.00;;;;;7.54;57.57;99934.81;5047468;28;8822;-77
2022/12/04 00:17:39;;;;;;;;;7.20;6.40;;;;;7.54;57.52;99928.72;5030824;28;8940;-77
2022/12/04 00:20:10;;;;;;;;;6.00;6.00;;;;;7.55;57.64;99928.75;5047728;28;8866;-78
2022/12/04 00:22:38;;;;;;;;;5.00;5.00;;;;;7.55;57.43;99941.75;5031215;28;8850;-79
2022/12/04 00:25:08;;;;;;;;;8.60;6.00;;;;;7.63;57.32;99941.88;5053304;28;8898;-78
2022/12/04 00:27:36;;;;;;;;;5.60;5.60;;;;;7.56;57.82;99943.50;5067234;28;8983;-79
2022/12/04 00:30:07;;;;;;;;;6.40;6.40;;;;;7.58;57.05;99938.31;5034350;28;8836;-77
2022/12/04 00:32:36;;;;;;;;;8.40;8.40;;;;;7.52;57.25;99943.41;5018315;28;8890;-77
2022/12/04 00:35:05;;;;;;;;;10.00;7.20;;;;;7.51;57.82;99939.06;5051063;28;8886;-77
2022/12/04 00:37:35;;;;;;;;;10.40;8.80;;;;;7.44;57.63;99932.03;5067270;28;8970;-78
2022/12/04 00:40:04;;;;;;;;;9.00;7.80;;;;;7.24;58.34;99911.78;5050696;28;8852;-78
2022/12/04 00:42:33;;;;;;;;;8.20;8.20;;;;;7.23;58.90;99917.81;5034282;28;8908;-78
2022/12/04 00:45:01;;;;;;;;;3.20;2.80;;;;;7.17;59.22;99918.56;5065772;28;8833;-77
2022/12/04 00:47:30;;;;;;;;;8.80;7.00;;;;;7.14;59.14;99917.63;5068880;28;8892;-78
2022/12/04 00:49:59;;;;;;;;;8.20;8.20;;;;;6.96;59.40;99929.38;5070219;28;8870;-78
2022/12/04 00:52:28;;;;;;;;;5.00;5.00;;;;;6.96;59.47;99912.97;5070111;28;8932;-77
2022/12/04 00:54:58;;;;;;;;;5.20;5.00;;;;;6.81;60.15;99927.34;5068700;28;8864;-77
2022/12/04 00:57:26;;;;;;;;;5.20;5.20;;;;;6.96;59.56;99920.75;5051101;28;8858;-76
2022/12/04 00:59:55;;;;;;;;;7.20;5.60;;;;;6.92;60.25;99919.81;5078637;28;8835;-79
2022/12/04 01:02:24;;;;;;;;;9.00;8.00;;;;;6.92;60.01;99911.13;5105762;28;8840;-77
2022/12/04 01:04:53;;;;;;;;;7.40;7.20;;;;;6.92;59.74;99901.66;5091413;28;9764;-78
2022/12/04 01:07:21;;;;;;;;;9.20;8.60;;;;;6.94;60.22;99906.88;5094587;28;8861;-76
2022/12/04 01:09:50;;;;;;;;;9.20;9.00;;;;;6.96;59.82;99894.81;5076427;28;8886;-78
2022/12/04 01:12:20;;;;;;;;;6.00;6.00;;;;;7.00;59.08;99907.84;5068342;28;8856;-77
2022/12/04 01:14:48;;;;;;;;;5.00;5.00;;;;;6.93;59.55;99903.38;5067744;28;8872;-79
2022/12/04 01:17:17;;;;;;;;;6.80;4.80;;;;;6.77;60.20;99915.19;5016264;28;8852;-80
2022/12/04 01:19:46;;;;;;;;;8.20;8.20;;;;;6.90;60.20;99881.72;5034150;28;8879;-79
2022/12/04 01:22:14;;;;;;;;;9.80;9.80;;;;;6.95;60.14;99886.13;5050277;28;8927;-79
2022/12/04 01:24:43;;;;;;;;;6.00;6.00;;;;;6.96;60.02;99882.72;5033366;28;8839;-80
2022/12/04 01:27:12;;;;;;;;;8.20;6.60;;;;;6.82;59.92;99876.38;5049882;28;8974;-79
2022/12/04 01:29:42;;;;;;;;;10.60;9.80;;;;;6.71;60.59;99859.75;5066476;28;9598;-77
2022/12/04 01:32:10;;;;;;;;;6.20;6.20;;;;;6.86;60.38;99875.59;5066587;28;8856;-80
2022/12/04 01:34:39;;;;;;;;;9.80;8.60;;;;;6.68;60.22;99863.16;5021111;28;8856;-79
2022/12/04 01:37:07;;;;;;;;;8.20;7.40;;;;;6.75;60.77;99862.44;5066468;28;8844;-79
2022/12/04 01:39:37;;;;;;;;;10.00;8.00;;;;;6.60;61.00;99851.75;5049211;28;8867;-78
2022/12/04 01:42:05;;;;;;;;;6.80;6.40;;;;;6.63;61.45;99831.97;5068411;28;9617;-78
2022/12/04 01:44:34;;;;;;;;;5.20;5.00;;;;;6.64;61.17;99832.84;5069918;28;8838;-78
2022/12/04 01:47:03;;;;;;;;;5.20;5.00;;;;;6.65;61.09;99819.03;5086274;28;8875;-77
2022/12/04 01:49:36;;;;;;;;;10.40;9.20;;;;;6.72;60.61;99807.94;5049054;28;8898;-77
2022/12/04 01:52:09;;;;;;;;;9.00;8.60;;;;;6.63;60.85;99795.69;5086842;28;8870;-78
2022/12/04 01:54:44;;;;;;;;;6.80;6.40;;;;;6.41;61.66;99806.47;5067776;28;8850;-77
2022/12/04 01:57:16;;;;;;;;;6.80;6.00;;;;;6.66;61.31;99815.59;5079936;28;8847;-78
2022/12/04 01:59:49;;;;;;;;;10.00;8.00;;;;;6.63;61.34;99807.75;5087094;28;8894;-77
2022/12/04 02:02:25;;;;;;;;;7.40;5.60;;;;;6.57;61.46;99811.09;5088490;28;8856;-77
2022/12/04 02:04:54;;;;;;;;;4.00;4.00;;;;;6.38;61.59;99821.94;5088877;28;8859;-77
2022/12/04 02:07:23;;;;;;;;;7.20;7.20;;;;;6.61;60.98;99823.28;5087065;28;8879;-76
2022/12/04 02:09:54;;;;;;;;;9.00;9.00;;;;;6.67;60.62;99806.09;5076378;28;8951;-78
2022/12/04 02:12:32;;;;;;;;;6.40;5.00;;;;;6.63;60.66;99807.75;5083811;28;8856;-77
2022/12/04 02:15:12;;;;;;;;;4.80;4.80;;;;;6.75;60.23;99799.38;5067225;28;9635;-76
2022/12/04 02:17:53;;;;;;;;;5.00;4.80;;;;;6.83;60.46;99803.84;5067093;28;8886;-79
2022/12/04 02:20:29;;;;;;;;;11.20;8.40;;;;;6.87;60.12;99815.13;5067846;28;8878;-79
2022/12/04 02:23:34;;;;;;;;;2.80;2.00;;;;;6.87;60.19;99812.53;5075505;28;8866;-77
2022/12/04 02:26:19;;;;;;;;;8.00;8.00;;;;;6.88;59.80;99818.59;5086941;28;8848;-78
2022/12/04 02:28:56;;;;;;;;;5.00;4.20;;;;;6.87;60.00;99799.59;5035831;28;8947;-78
2022/12/04 02:31:31;;;;;;;;;5.00;5.00;;;;;6.92;59.32;99794.47;5068984;28;8854;-78
2022/12/04 02:34:05;;;;;;;;;6.00;6.00;;;;;6.83;60.26;99795.19;5073632;28;8869;-77
2022/12/04 02:36:42;;;;;;;;;9.20;4.80;;;;;6.79;60.41;99801.16;5079644;28;8907;-78
2022/12/04 02:39:18;;;;;;;;;5.00;5.00;;;;;6.80;59.50;99816.72;5084965;28;8863;-77
2022/12/04 02:41:56;;;;;;;;;4.60;4.60;;;;;6.83;59.65;99811.63;5073988;28;9633;-77
2022/12/04 02:44:30;;;;;;;;;5.00;5.00;;;;;6.86;59.97;99821.16;5086106;28;8811;-77
2022/12/04 02:47:03;;;;;;;;;3.80;3.80;;;;;6.89;59.58;99822.94;5028708;28;8820;-78
2022/12/04 02:49:38;;;;;;;;;5.80;5.80;;;;;6.86;59.89;99828.06;5012508;28;8917;-79
2022/12/04 02:52:11;;;;;;;;;7.80;6.00;;;;;6.82;60.13;99811.56;5045374;28;8870;-78
2022/12/04 02:54:43;;;;;;;;;9.60;4.40;;;;;6.86;59.49;99810.78;5016223;28;8917;-78
2022/12/04 02:57:19;;;;;;;;;2.00;2.00;;;;;6.91;59.53;99806.56;5043183;28;8851;-78
2022/12/04 02:59:52;;;;;;;;;2.60;2.60;;;;;6.90;59.59;99810.03;5041221;28;8855;-78
2022/12/04 03:02:28;;;;;;;;;2.00;1.80;;;;;6.93;59.29;99810.06;5067569;28;8876;-77
2022/12/04 03:05:00;;;;;;;;;5.00;4.80;;;;;6.93;59.29;99817.84;5032782;28;8851;-77
2022/12/04 03:07:38;;;;;;;;;5.20;4.80;;;;;6.82;59.49;99809.88;5065447;28;8844;-76
2022/12/04 03:10:13;;;;;;;;;5.00;3.60;;;;;6.92;59.42;99821.28;5002288;28;8848;-79
2022/12/04 03:12:47;;;;;;;;;4.60;4.60;;;;;6.88;59.84;99819.50;5064483;28;8874;-78
2022/12/04 03:15:22;;;;;;;;;2.40;2.40;;;;;6.86;59.99;99818.56;5065006;28;8945;-75
2022/12/04 03:17:56;;;;;;;;;10.40;6.00;;;;;6.90;59.61;99799.66;5074682;28;10057;-77
2022/12/04 03:20:25;;;;;;;;;3.80;3.80;;;;;6.78;60.18;99805.47;5091195;28;8872;-77
2022/12/04 03:22:59;;;;;;;;;3.80;3.80;;;;;6.67;60.31;99819.06;5073967;28;8870;-79
2022/12/04 03:25:35;;;;;;;;;5.80;5.00;;;;;6.77;59.89;99814.09;5060503;28;8878;-77
2022/12/04 03:28:08;;;;;;;;;6.40;3.80;;;;;6.80;60.22;99808.09;5106545;28;8931;-77
2022/12/04 03:30:46;;;;;;;;;4.60;4.60;;;;;6.75;59.74;99800.22;5090621;28;8851;-77
2022/12/04 03:33:19;;;;;;;;;5.40;4.60;;;;;6.68;59.89;99795.78;5077404;28;8882;-77
2022/12/04 03:35:52;;;;;;;;;5.00;2.00;;;;;6.74;59.83;99803.66;5070475;28;8858;-77
2022/12/04 03:38:31;;;;;;;;;2.40;2.40;;;;;6.61;60.04;99806.84;5071358;28;8920;-78
2022/12/04 03:41:04;;;;;;;;;3.80;3.80;;;;;6.64;60.51;99800.03;5069792;28;8858;-77
2022/12/04 03:43:37;;;;;;;;;4.60;4.40;;;;;6.67;59.90;99790.56;5086802;28;8838;-77
2022/12/04 03:46:14;;;;;;;;;5.00;5.00;;;;;6.61;60.25;99794.78;5069863;28;8834;-76
2022/12/04 03:48:51;;;;;;;;;5.00;4.00;;;;;6.66;60.18;99797.47;5030420;28;8919;-78
2022/12/04 03:51:24;;;;;;;;;4.00;2.20;;;;;6.70;59.87;99799.28;5071863;28;8989;-78
2022/12/04 03:53:58;;;;;;;;;4.40;1.80;;;;;6.62;60.44;99787.88;5089239;28;8856;-79
2022/12/04 03:56:31;;;;;;;;;4.80;4.80;;;;;6.54;60.84;99794.63;5066153;28;8852;-77
2022/12/04 03:59:05;;;;;;;;;2.40;2.00;;;;;6.57;60.32;99800.75;5104690;28;8968;-78
2022/12/04 04:01:42;;;;;;;;;2.40;2.40;;;;;6.71;60.06;99808.81;5093082;28;8844;-77
2022/12/04 04:04:15;;;;;;;;;1.80;1.80;;;;;6.64;60.87;99810.38;5090536;28;9616;-78
2022/12/04 04:06:50;;;;;;;;;5.00;4.00;;;;;6.78;60.02;99815.81;5085410;28;8857;-77
2022/12/04 04:09:24;;;;;;;;;2.60;2.00;;;;;6.69;60.13;99810.50;5070559;28;8938;-78
2022/12/04 04:11:56;;;;;;;;;4.40;2.40;;;;;6.79;59.67;99824.50;5069805;28;8862;-78
2022/12/04 04:25:58;;;;;;;;;3.20;3.20;;;;;6.65;60.24;99800.88;5078672;28;8815;-78
2022/12/04 04:28:31;;;;;;;;;2.00;2.00;;;;;6.67;60.38;99800.91;5070572;28;8869;-78
2022/12/04 04:31:07;;;;;;;;;5.20;3.20;;;;;6.75;60.41;99804.56;5102650;28;8885;-78
2022/12/04 04:33:46;;;;;;;;;2.00;2.00;;;;;6.64;60.15;99792.25;5070608;28;8854;-78
2022/12/04 04:36:23;;;;;;;;;2.00;2.00;;;;;6.69;60.60;99813.09;5069672;28;8826;-78
2022/12/04 04:39:00;;;;;;;;;5.00;4.00;;;;;6.70;59.96;99790.63;5047923;28;8962;-77
2022/12/04 04:41:37;;;;;;;;;5.00;5.00;;;;;6.83;59.90;99790.00;5025552;28;8853;-78
2022/12/04 04:44:17;;;;;;;;;2.00;2.00;;;;;6.57;61.22;99795.56;5067826;28;9587;-78
2022/12/04 04:46:51;;;;;;;;;2.00;2.00;;;;;6.55;60.82;99793.78;5031700;28;8820;-76
2022/12/04 04:49:26;;;;;;;;;4.00;4.00;;;;;6.66;60.56;99788.81;5050552;28;8868;-78
2022/12/04 04:51:55;;;;;;;;;4.20;4.20;;;;;6.39;61.51;99790.00;5048468;28;9021;-78
2022/12/04 04:54:25;;;;;;;;;4.60;4.60;;;;;6.69;61.04;99794.03;5047677;28;8977;-79
2022/12/04 04:56:54;;;;;;;;;2.40;2.40;;;;;6.63;60.72;99795.69;5052295;28;8832;-75
2022/12/04 04:59:22;;;;;;;;;4.40;4.40;;;;;6.69;60.45;99791.47;5065826;28;10044;-80
2022/12/04 05:01:51;;;;;;;;;4.00;4.00;;;;;6.74;59.93;99802.78;5050028;28;8975;-76
2022/12/04 05:04:21;;;;;;;;;4.80;3.40;;;;;6.81;60.05;99794.28;5051276;28;8834;-76
2022/12/04 05:06:50;;;;;;;;;2.80;2.80;;;;;6.64;61.01;99797.44;5053543;28;8849;-77
2022/12/04 05:09:18;;;;;;;;;4.60;4.00;;;;;6.65;60.76;99800.88;5069658;28;8852;-77
2022/12/04 05:11:47;;;;;;;;;3.40;2.80;;;;;6.68;61.13;99788.00;5099010;28;8848;-76
2022/12/04 05:14:15;;;;;;;;;3.80;3.80;;;;;6.67;61.00;99790.56;5087738;28;9071;-76
2022/12/04 05:16:44;;;;;;;;;5.00;3.80;;;;;6.72;60.36;99786.34;5088356;28;8848;-78
2022/12/04 05:21:59;;;;;;;;;2.40;2.40;;;;;6.61;60.99;99781.81;5088051;28;8855;-76
2022/12/04 05:24:28;;;;;;;;;6.00;6.00;;;;;6.66;61.19;99799.19;5036956;28;8963;-77
2022/12/04 05:26:57;;;;;;;;;2.00;2.00;;;;;6.59;61.53;99798.19;5104756;28;8844;-77
2022/12/04 05:29:25;;;;;;;;;3.60;3.60;;;;;6.64;60.85;99791.38;5088181;28;8879;-77
2022/12/04 05:31:57;;;;;;;;;5.00;4.20;;;;;6.62;61.14;99806.91;5083193;28;8858;-77
2022/12/04 05:34:26;;;;;;;;;7.20;4.80;;;;;6.52;61.38;99793.72;5049897;28;8838;-77
2022/12/04 05:36:55;;;;;;;;;4.60;4.60;;;;;6.63;60.66;99793.13;5067163;28;9685;-78
2022/12/04 05:39:24;;;;;;;;;5.20;5.20;;;;;6.72;60.58;99788.94;5067521;28;9619;-77
2022/12/04 05:41:53;;;;;;;;;5.20;5.00;;;;;6.52;61.35;99779.06;5062897;28;8955;-77
2022/12/04 05:44:22;;;;;;;;;4.60;4.00;;;;;6.68;61.38;99776.78;5050380;28;8853;-76
2022/12/04 05:46:50;;;;;;;;;9.20;6.40;;;;;6.57;61.15;99779.16;5065680;28;8855;-76
2022/12/04 05:49:19;;;;;;;;;9.60;7.20;;;;;6.45;61.51;99764.25;5052789;28;8852;-76
2022/12/04 05:51:49;;;;;;;;;4.00;0.60;;;;;6.42;62.29;99782.31;5049171;28;8843;-77
2022/12/04 05:54:18;;;;;;;;;5.00;5.00;;;;;6.41;62.24;99786.63;5032492;28;8868;-77
2022/12/04 05:56:48;;;;;;;;;2.40;2.40;;;;;6.53;61.99;99782.53;5032351;28;8843;-78
2022/12/04 05:59:17;;;;;;;;;4.20;4.20;;;;;6.42;61.91;99798.72;5032151;28;8859;-77
2022/12/04 06:01:46;;;;;;;;;6.60;5.00;;;;;6.61;61.72;99788.72;5031517;28;8933;-79
2022/12/04 06:04:14;;;;;;;;;7.60;5.80;;;;;6.44;62.02;99794.44;5054444;28;8870;-77
2022/12/04 06:06:43;;;;;;;;;5.20;5.20;;;;;6.52;61.65;99788.53;5062967;28;8878;-77
2022/12/04 06:09:12;;;;;;;;;5.40;5.40;;;;;6.54;61.53;99798.09;5065060;28;8871;-77
2022/12/04 06:11:42;;;;;;;;;5.00;5.00;;;;;6.52;62.05;99767.81;5045670;28;8848;-78
2022/12/04 06:14:14;;;;;;;;;8.00;7.20;;;;;6.40;62.51;99760.69;5101515;28;8856;-78
2022/12/04 06:16:45;;;;;;;;;5.00;5.00;;;;;6.37;62.55;99802.06;5088190;28;8831;-76
2022/12/04 06:19:16;;;;;;;;;4.80;4.80;;;;;6.33;62.36;99790.78;5103106;28;8840;-77
2022/12/04 06:21:47;;;;;;;;;4.00;4.00;;;;;6.46;62.04;99794.47;5084967;28;8847;-77
2022/12/04 06:24:18;;;;;;;;;5.00;5.00;;;;;6.39;62.38;99765.00;5087552;28;8887;-76
2022/12/04 06:26:47;;;;;;;;;6.80;5.00;;;;;6.43;62.28;99779.75;5086460;28;8832;-79
2022/12/04 06:29:37;;;;;;;;;8.20;7.20;;;;;6.46;61.90;99781.50;5103122;28;8871;-76
2022/12/04 06:32:06;;;;;;;;;5.00;5.00;;;;;6.50;62.10;99793.69;5086255;28;9726;-78
2022/12/04 06:34:35;;;;;;;;;5.00;5.00;;;;;6.47;62.32;99797.97;5107224;28;8847;-76
2022/12/04 06:37:04;;;;;;;;;5.20;5.20;;;;;6.62;61.44;99800.84;5098120;28;8864;-77
2022/12/04 06:39:33;;;;;;;;;5.60;5.60;;;;;6.67;61.16;99788.84;5074638;28;8863;-78
2022/12/04 06:42:01;;;;;;;;;3.80;3.60;;;;;6.80;61.04;99810.69;5076513;28;8834;-77
2022/12/04 06:44:30;;;;;;;;;8.60;6.00;;;;;6.90;60.69;99816.91;5070173;28;8878;-78
2022/12/04 06:47:00;;;;;;;;;6.80;5.60;;;;;6.87;60.88;99820.31;5066955;28;8889;-78
2022/12/04 06:49:29;;;;;;;;;5.00;5.00;;;;;6.94;60.91;99801.44;5081759;28;8868;-77
2022/12/04 06:51:57;;;;;;;;;8.00;8.00;;;;;6.97;60.15;99811.84;5086590;28;8847;-78
2022/12/04 06:54:26;;;;;;;;;10.80;7.80;;;;;6.89;60.65;99808.25;5090637;28;8870;-79
2022/12/04 06:56:55;;;;;;;;;9.80;9.00;;;;;6.92;60.77;99807.44;5090094;28;8905;-77
2022/12/04 06:59:23;;;;;;;;;9.00;8.40;;;;;6.90;60.32;99793.56;5124682;27;8894;-77
2022/12/04 07:01:52;;;;;;;;;7.00;6.00;;;;;6.85;60.93;99803.88;5086171;28;8867;-79
2022/12/04 07:04:23;;;;;;;;;8.40;7.20;;;;;6.98;60.54;99795.47;5090280;28;8852;-79
2022/12/04 07:06:52;;;;;;;;;9.00;7.80;;;;;7.18;59.46;99818.28;5090008;28;9636;-79
2022/12/04 07:09:20;;;;;;;;;8.40;8.40;;;;;7.09;59.34;99812.91;5092091;28;8866;-77
2022/12/04 07:11:49;;;;;;;;;7.80;5.80;;;;;7.14;59.22;99806.97;5089426;28;8855;-78
2022/12/04 07:14:17;;;;;;;;;6.20;5.40;;;;;7.18;58.91;99813.09;5073767;28;9606;-77
2022/12/04 07:16:46;;;;;;;;;7.20;6.20;;;;;7.28;59.26;99820.19;5090612;28;8836;-78
2022/12/04 07:19:15;;;;;;;;;6.00;5.00;;;;;7.20;58.81;99822.66;5039366;28;8884;-78
2022/12/04 07:21:45;;;;;;;;;5.20;5.20;;;;;7.39;58.30;99818.66;5055920;28;8873;-79
2022/12/04 07:24:16;;;;;;;;;7.60;7.60;;;;;7.37;58.68;99807.38;5059060;28;8964;-79
2022/12/04 07:26:45;;;;;;;;;3.20;3.20;;;;;7.54;57.49;99827.53;5076567;28;8852;-78
2022/12/04 07:29:14;;;;;;;;;5.20;5.20;;;;;7.60;57.41;99841.50;5086460;28;8828;-76
2022/12/04 07:31:43;;;;;;;;;4.20;4.20;;;;;7.71;57.33;99839.06;5056047;28;8850;-77
2022/12/04 07:34:11;;;;;;;;;9.60;7.20;;;;;7.76;56.74;99837.41;5052802;28;8901;-79
2022/12/04 07:36:40;;;;;;;;;5.80;5.80;;;;;7.72;56.47;99845.13;5031885;28;8853;-80
2022/12/04 07:39:10;;;;;;;;;5.60;5.20;;;;;7.83;56.80;99840.13;5015323;28;8881;-78
2022/12/04 07:41:39;;;;;;;;;2.40;2.20;;;;;7.73;56.21;99839.06;5032131;28;9576;-78
2022/12/04 07:44:09;;;;;;;;;4.20;4.20;;;;;7.74;56.53;99830.44;5032262;28;8947;-77
2022/12/04 07:46:37;;;;;;;;;3.00;3.00;;;;;7.88;56.18;99831.53;5048122;28;8838;-79
2022/12/04 07:49:06;;;;;;;;;5.40;4.80;;;;;7.83;56.42;99842.72;5048907;28;8897;-79
2022/12/04 07:51:35;;;;;;;;;3.00;3.00;;;;;7.94;55.47;99831.63;5031717;28;8858;-77
2022/12/04 07:54:03;;;;;;;;;5.40;5.20;;;;;8.03;55.83;99836.06;5030930;28;8835;-80
2022/12/04 07:56:33;;;;;;;;;5.00;3.40;;;;;8.17;55.14;99824.16;5028650;28;8967;-77
2022/12/04 07:59:02;;;;;;;;;6.80;5.20;;;;;8.11;55.74;99837.06;5014570;28;8892;-78
2022/12/04 08:01:32;;;;;;;;;6.80;5.00;;;;;8.23;55.07;99820.78;5013588;28;8920;-77
2022/12/04 08:04:02;;;;;;;;;3.00;3.00;;;;;8.26;55.16;99813.03;5047486;28;8858;-80
2022/12/04 08:06:33;;;;;;;;;6.00;6.00;;;;;8.29;54.67;99819.97;5012550;28;8846;-77
2022/12/04 08:09:02;;;;;;;;;7.00;5.80;;;;;8.29;54.50;99822.56;5087644;28;8863;-78
2022/12/04 08:11:38;;;;;;;;;1.40;0.60;;;;;8.47;54.31;99837.53;5087426;28;8864;-78
2022/12/04 08:14:08;;;;;;;;;5.80;5.00;;;;;8.53;53.99;99840.25;5086951;28;8904;-78
2022/12/04 08:16:37;;;;;;;;;9.60;8.80;;;;;8.60;54.00;99829.06;5090196;28;8950;-79
2022/12/04 08:19:06;;;;;;;;;6.80;6.80;;;;;8.71;53.48;99836.97;5098575;28;8847;-77
2022/12/04 08:21:35;;;;;;;;;13.80;12.00;;;;;8.87;52.76;99820.69;5098352;28;8860;-78
2022/12/04 08:24:03;;;;;;;;;6.80;6.80;;;;;8.77;53.71;99818.84;5075416;28;8890;-77
2022/12/04 08:26:33;;;;;;;;;5.20;5.20;;;;;8.71;53.71;99823.97;5083168;28;8858;-77
2022/12/04 08:29:04;;;;;;;;;6.00;3.00;;;;;8.87;52.98;99818.09;5087925;28;8928;-78
2022/12/04 08:31:35;;;;;;;;;7.60;7.60;;;;;9.01;53.27;99817.38;5089695;28;8997;-76
2022/12/04 08:34:06;;;;;;;;;8.40;5.20;;;;;9.19;52.86;99812.34;5089765;28;8867;-77
2022/12/04 08:36:35;;;;;;;;;6.40;5.40;;;;;9.21;52.40;99809.78;5067733;28;8894;-78
2022/12/04 08:39:04;;;;;;;;;6.00;5.20;;;;;9.15;52.71;99810.59;5066713;28;9033;-78
2022/12/04 08:41:34;;;;;;;;;3.40;2.80;;;;;9.23;52.58;99808.91;5067962;28;8910;-76
2022/12/04 08:44:04;;;;;;;;;7.40;7.40;;;;;9.57;51.65;99822.22;5049547;28;8858;-78
2022/12/04 08:46:33;;;;;;;;;6.60;6.60;;;;;9.42;52.09;99824.72;5052489;28;8859;-77
2022/12/04 08:49:02;;;;;;;;;6.60;6.60;;;;;9.48;51.85;99828.22;5068305;28;8832;-79
2022/12/04 08:51:33;;;;;;;;;5.80;4.60;;;;;9.50;51.31;99810.88;5052994;28;8876;-79
2022/12/04 08:54:05;;;;;;;;;7.00;6.00;;;;;9.60;51.37;99784.91;5044173;28;8879;-81
2022/12/04 08:56:36;;;;;;;;;5.40;5.40;;;;;9.47;51.62;99795.25;5034959;28;8894;-82
2022/12/04 08:59:06;;;;;;;;;5.20;5.20;;;;;9.60;51.12;99795.31;5031877;28;8848;-82
2022/12/04 09:01:36;;;;;;;;;6.40;6.20;;;;;9.56;51.38;99784.00;5022094;28;8879;-79
2022/12/04 09:04:05;;;;;;;;;6.00;6.00;;;;;9.42;52.08;99790.88;5047473;28;8863;-81
2022/12/04 09:06:34;;;;;;;;;5.20;5.20;;;;;9.26;53.91;99748.22;5045218;28;8866;-76
2022/12/04 09:09:03;;;;;;;;;6.00;6.00;;;;;9.24;54.20;99758.59;5086490;28;8847;-77
2022/12/04 09:11:32;;;;;;;;;8.20;7.80;;;;;9.46;53.50;99749.25;5070977;28;8856;-80
2022/12/04 09:14:02;;;;;;;;;12.80;11.60;;;;;9.69;52.48;99753.72;5084071;28;9601;-78
2022/12/04 09:16:32;;;;;;;;;1.00;1.00;;;;;9.83;51.88;99757.31;5069806;28;8992;-79
2022/12/04 09:19:01;;;;;;;;;8.00;7.80;;;;;9.90;51.48;99743.44;5104885;28;9639;-80
2022/12/04 09:21:30;;;;;;;;;7.60;5.60;;;;;9.90;51.88;99748.63;5038554;28;8919;-80
2022/12/04 09:23:59;;;;;;;;;7.80;6.60;;;;;9.98;51.45;99746.09;5072390;28;8909;-81
2022/12/04 09:26:30;;;;;;;;;8.60;7.00;;;;;9.97;51.10;99752.16;5036836;28;8913;-80
2022/12/04 09:29:00;;;;;;;;;5.40;5.40;;;;;10.15;50.80;99751.38;5040636;28;9014;-82
2022/12/04 09:31:30;;;;;;;;;7.60;7.60;;;;;10.27;50.45;99761.00;5028932;28;8856;-81
2022/12/04 09:34:00;;;;;;;;;8.40;7.60;;;;;10.42;50.58;99749.78;5025927;28;8866;-82
2022/12/04 09:36:30;;;;;;;;;8.40;8.40;;;;;10.38;50.10;99755.84;5044084;28;8899;-79
2022/12/04 09:38:58;;;;;;;;;7.40;7.40;;;;;10.51;49.71;99752.44;5052469;28;8905;-81
2022/12/04 09:42:12;;;;;;;;;8.20;7.60;;;;;10.75;49.44;99745.53;5035092;28;8842;-79
2022/12/04 09:44:45;;;;;;;;;7.80;6.00;;;;;10.82;49.40;99734.25;5003867;28;8870;-82
2022/12/04 09:47:22;;;;;;;;;12.20;8.80;;;;;10.77;48.69;99743.78;4986255;28;8899;-84
2022/12/04 09:49:57;;;;;;;;;9.00;7.80;;;;;10.87;48.74;99742.94;4988849;28;9522;-80
2022/12/04 09:52:37;;;;;;;;;7.80;7.60;;;;;10.92;48.71;99733.38;4985976;28;8990;-79
2022/12/04 09:55:14;;;;;;;;;3.40;3.40;;;;;10.84;49.13;99709.88;4983827;28;8855;-81
2022/12/04 09:57:46;;;;;;;;;7.40;7.20;;;;;10.89;48.98;99708.16;4959012;28;8874;-79
2022/12/04 10:00:18;;;;;;;;;8.80;7.40;;;;;11.04;48.27;99693.34;5003519;28;8887;-81
2022/12/04 10:02:51;;;;;;;;;7.40;7.00;;;;;11.20;47.97;99697.72;5003667;28;8874;-81
2022/12/04 10:05:28;;;;;;;;;8.60;7.40;;;;;11.19;48.40;99684.66;4971717;28;8838;-82
2022/12/04 10:08:06;;;;;;;;;11.40;8.60;;;;;11.24;47.98;99690.75;4987440;28;8870;-79
2022/12/04 10:10:39;;;;;;;;;7.40;7.40;;;;;11.53;48.09;99695.94;4954262;28;9003;-78
2022/12/04 10:13:38;;;;;;;;;10.60;8.40;;;;;11.60;47.49;99683.72;4986008;28;8886;-80
2022/12/04 10:16:11;;;;;;;;;6.60;6.60;;;;;11.54;47.88;99702.03;4927973;29;8847;-81
2022/12/04 10:18:46;;;;;;;;;6.00;6.00;;;;;11.45;47.95;99701.16;4956943;28;10082;-78
2022/12/04 10:21:33;;;;;;;;;7.40;6.20;;;;;11.58;47.52;99709.84;5015459;28;8992;-81
2022/12/04 10:24:16;;;;;;;;;6.80;6.80;;;;;11.48;47.23;99693.31;5010271;28;9686;-79
2022/12/04 10:26:46;;;;;;;;;18.00;14.00;;;;;11.45;47.60;99690.72;5010884;28;8896;-78
2022/12/04 10:29:20;;;;;;;;;7.40;7.00;;;;;11.60;46.64;99688.94;4991448;28;8846;-80
2022/12/04 10:31:53;;;;;;;;;6.20;4.60;;;;;11.71;46.54;99702.84;5004376;28;8862;-78
2022/12/04 10:34:26;;;;;;;;;6.00;6.00;;;;;11.91;46.16;99702.84;4987048;28;8861;-79
2022/12/04 10:37:09;;;;;;;;;7.60;7.00;;;;;11.71;45.94;99684.56;5005482;28;9010;-81
2022/12/04 10:39:45;;;;;;;;;9.60;8.00;;;;;11.83;45.39;99697.59;5015698;28;8881;-82
2022/12/04 10:42:25;;;;;;;;;5.40;5.40;;;;;11.84;45.57;99675.81;5031955;28;8837;-78
2022/12/04 10:44:55;;;;;;;;;6.60;6.60;;;;;11.91;45.83;99666.25;4973695;28;9065;-79
2022/12/04 10:47:25;;;;;;;;;7.40;5.60;;;;;12.00;46.02;99671.44;5009190;28;8856;-80
2022/12/04 10:49:59;;;;;;;;;7.00;6.40;;;;;11.95;46.30;99661.88;5009329;28;8843;-78
2022/12/04 10:52:29;;;;;;;;;6.40;6.40;;;;;11.88;46.51;99672.31;5029003;28;8903;-77
2022/12/04 10:55:00;;;;;;;;;7.80;6.80;;;;;11.82;46.21;99661.03;5085111;28;8868;-80
2022/12/04 10:57:37;;;;;;;;;5.40;5.40;;;;;11.74;46.16;99653.22;5085570;28;8846;-79
2022/12/04 11:00:25;;;;;;;;;7.00;6.80;;;;;11.94;46.15;99657.53;5052216;28;8854;-78
2022/12/04 11:02:57;;;;;;;;;6.20;6.20;;;;;11.98;45.93;99651.41;5065343;28;9613;-78
2022/12/04 11:05:30;;;;;;;;;6.80;5.60;;;;;11.97;45.88;99661.00;5048384;28;8863;-77
2022/12/04 11:08:03;;;;;;;;;7.20;5.80;;;;;11.81;46.30;99651.44;5082028;28;8869;-79
2022/12/04 11:10:35;;;;;;;;;7.40;7.40;;;;;11.75;46.03;99652.31;5067615;28;8830;-78
2022/12/04 11:13:06;;;;;;;;;8.20;8.00;;;;;11.89;46.23;99666.25;5041548;28;8844;-80
2022/12/04 11:15:41;;;;;;;;;9.60;7.60;;;;;11.98;46.35;99660.09;4992396;28;8848;-80
2022/12/04 11:18:17;;;;;;;;;7.80;7.80;;;;;11.93;46.35;99663.59;5010290;28;8957;-79
2022/12/04 11:20:52;;;;;;;;;6.00;4.40;;;;;12.03;46.16;99660.97;5010792;28;8880;-79
2022/12/04 11:23:24;;;;;;;;;5.80;5.80;;;;;12.00;46.15;99658.38;5014565;28;8840;-79
2022/12/04 11:25:57;;;;;;;;;9.20;9.20;;;;;12.16;46.14;99664.38;5022325;28;8868;-79
2022/12/04 11:28:35;;;;;;;;;9.60;7.00;;;;;12.45;45.29;99664.22;5021222;28;8967;-79
2022/12/04 11:31:17;;;;;;;;;8.80;8.80;;;;;12.23;45.90;99660.88;5062983;28;8882;-81
2022/12/04 11:33:49;;;;;;;;;9.00;8.80;;;;;12.18;45.81;99649.56;5045899;28;8834;-78
2022/12/04 11:36:22;;;;;;;;;8.40;6.60;;;;;12.26;45.60;99647.75;5045996;28;8862;-80
2022/12/04 11:39:02;;;;;;;;;8.80;8.80;;;;;12.35;45.38;99659.94;5068624;28;8840;-78
2022/12/04 11:41:33;;;;;;;;;8.20;7.60;;;;;12.25;44.99;99656.50;5091089;28;8862;-78
2022/12/04 11:44:01;;;;;;;;;9.00;7.60;;;;;12.47;44.90;99664.19;5073910;28;8889;-78
2022/12/04 11:46:32;;;;;;;;;9.40;7.80;;;;;12.62;44.53;99658.00;5074432;28;8867;-78
2022/12/04 11:49:02;;;;;;;;;8.60;8.00;;;;;12.49;44.79;99665.06;5091269;28;9691;-80
2022/12/04 11:51:46;;;;;;;;;10.20;9.00;;;;;12.62;44.47;99661.47;5073546;28;8828;-78
2022/12/04 11:54:28;;;;;;;;;7.00;4.60;;;;;12.66;44.98;99652.75;5073284;28;8882;-77
2022/12/04 11:57:11;;;;;;;;;9.60;9.60;;;;;12.66;44.69;99658.00;5107334;28;8852;-78
2022/12/04 11:59:55;;;;;;;;;8.80;8.80;;;;;12.76;43.97;99652.66;5086093;28;8926;-80
2022/12/04 12:02:41;;;;;;;;;13.40;13.40;;;;;12.74;44.47;99659.66;5069095;28;8864;-81
2022/12/04 12:05:23;;;;;;;;;10.20;9.40;;;;;12.53;44.02;99663.28;5069545;28;9653;-79
2022/12/04 12:08:00;;;;;;;;;4.00;3.00;;;;;12.59;44.09;99661.53;5069403;28;8871;-77
2022/12/04 12:10:40;;;;;;;;;8.60;7.60;;;;;12.61;44.47;99661.53;5103887;28;8858;-77
2022/12/04 12:13:23;;;;;;;;;8.40;8.40;;;;;12.74;43.87;99676.25;5055399;28;8843;-79
2022/12/04 12:16:00;;;;;;;;;8.40;8.00;;;;;12.52;44.27;99658.97;5082930;28;8854;-77
2022/12/04 12:18:46;;;;;;;;;7.20;7.20;;;;;12.36;44.70;99658.16;5084956;28;8856;-77
2022/12/04 12:21:22;;;;;;;;;10.40;9.80;;;;;12.27;44.63;99680.03;5101535;28;8983;-77
2022/12/04 12:24:07;;;;;;;;;7.60;7.60;;;;;12.34;44.76;99667.78;5091299;28;8886;-78
2022/12/04 12:26:46;;;;;;;;;6.40;5.20;;;;;12.29;43.98;99689.59;5092045;28;8887;-79